Time;durP1;ratioP1;P1;durP2;ratioP2;P2;SDS_P1;SDS_P2;PMS_P1;PMS_P2;Temp;Humidity;BMP_temperature;BMP_pressure;BME280_temperature;BME280_humidity;BME280_pressure;Samples;Min_cycle;Max_cycle;Signal;HPM_P1;HPM_P2
2022/12/08 00:10:23;;;;;;;41.70;23.92;;;8.50;60.60;;;;;;6068082;23;20066;-87
2022/12/08 00:19:58;;;;;;;40.88;22.92;;;8.80;57.10;;;;;;5927033;24;20031;-88
2022/12/08 00:33:50;;;;;;;44.92;25.88;;;9.00;57.90;;;;;;5929236;23;20016;-85
2022/12/08 00:36:16;;;;;;;40.67;25.15;;;9.20;57.70;;;;;;5943443;23;20203;-85
2022/12/08 00:45:26;;;;;;;48.35;28.58;;;8.80;57.00;;;;;;6038912;23;20022;-83
2022/12/08 01:00:46;;;;;;;51.42;28.42;;;9.30;57.00;;;;;;6152104;23;20017;-85
2022/12/08 01:09:57;;;;;;;45.15;26.88;;;9.00;57.30;;;;;;6187277;23;20497;-84
2022/12/08 01:12:22;;;;;;;45.15;26.23;;;9.10;56.90;;;;;;6160152;23;20372;-85
2022/12/08 01:24:58;;;;;;;58.78;29.75;;;9.50;56.50;;;;;;6185583;23;20430;-83
2022/12/08 01:27:24;;;;;;;72.10;29.92;;;9.50;56.70;;;;;;6160782;23;20059;-84
2022/12/08 01:29:50;;;;;;;51.80;27.98;;;9.60;56.60;;;;;;6160226;23;20025;-83
2022/12/08 01:35:44;;;;;;;57.75;28.65;;;9.80;56.00;;;;;;6156285;23;20013;-88
2022/12/08 01:39:01;;;;;;;61.55;29.52;;;9.50;55.40;;;;;;6154655;23;20037;-83
2022/12/08 01:45:25;;;;;;;79.95;29.83;;;9.10;56.60;;;;;;6009336;23;20370;-83
2022/12/08 01:48:26;;;;;;;72.55;30.02;;;8.90;56.60;;;;;;5986178;23;20008;-85
2022/12/08 01:56:09;;;;;;;98.72;31.77;;;9.00;57.10;;;;;;6180336;23;20426;-84
2022/12/08 02:02:04;;;;;;;67.50;29.23;;;9.30;57.00;;;;;;6186060;23;20011;-83
2022/12/08 02:05:17;;;;;;;55.60;27.00;;;9.20;57.60;;;;;;6159784;23;20087;-83
2022/12/08 02:13:16;;;;;;;51.08;27.67;;;9.30;57.50;;;;;;6180475;23;20021;-80
2022/12/08 02:19:44;;;;;;;61.30;29.52;;;9.40;57.60;;;;;;6186302;23;20012;-83
2022/12/08 02:23:20;;;;;;;;;;;;;;;;;;;;;
2022/12/08 02:30:11;;;;;;;49.35;26.30;;;9.30;57.30;;;;;;6037318;23;20050;-83
2022/12/08 02:32:39;;;;;;;44.20;25.17;;;9.30;57.20;;;;;;5948225;24;20096;-83
2022/12/08 02:35:14;;;;;;;49.58;25.80;;;9.30;56.90;;;;;;5948755;24;20013;-82
2022/12/08 02:38:00;;;;;;;47.40;25.30;;;9.10;56.70;;;;;;5925860;24;20042;-83
2022/12/08 02:40:56;;;;;;;72.18;27.30;;;8.70;57.40;;;;;;5925749;24;20399;-83
2022/12/08 02:43:26;;;;;;;59.92;28.05;;;8.40;59.00;;;;;;5927902;24;20432;-83
2022/12/08 02:49:19;;;;;;;51.30;26.98;;;8.80;58.00;;;;;;5925770;24;20016;-83
2022/12/08 02:52:04;;;;;;;53.30;27.35;;;9.00;58.30;;;;;;5902556;24;20116;-85
2022/12/08 02:55:28;;;;;;;48.90;26.55;;;9.20;57.30;;;;;;5917671;24;20001;-83
2022/12/08 02:58:06;;;;;;;48.92;26.00;;;9.30;57.50;;;;;;5925838;24;20058;-82
2022/12/08 03:04:38;;;;;;;52.03;24.08;;;9.20;56.80;;;;;;6078191;23;20050;-81
2022/12/08 03:07:13;;;;;;;45.85;26.15;;;9.20;56.80;;;;;;6070682;23;20042;-85
2022/12/08 03:09:58;;;;;;;46.90;26.70;;;9.10;57.40;;;;;;6094445;23;19998;-80
2022/12/08 03:13:13;;;;;;;;;;;;;;;;;;;;;
2022/12/08 03:15:59;;;;;;;50.17;28.52;;;9.30;57.40;;;;;;6094895;23;20105;-81
2022/12/08 03:22:07;;;;;;;44.45;25.77;;;9.20;58.30;;;;;;5926645;24;20021;-81
2022/12/08 03:24:39;;;;;;;43.08;24.95;;;9.50;56.90;;;;;;5904364;24;20096;-82
2022/12/08 03:27:40;;;;;;;44.72;24.80;;;9.60;56.40;;;;;;5903302;24;20017;-82
2022/12/08 03:30:07;;;;;;;47.55;26.27;;;9.30;55.70;;;;;;5925563;24;20013;-82
2022/12/08 03:32:46;;;;;;;41.58;23.75;;;9.20;56.50;;;;;;5926746;24;20017;-82
2022/12/08 03:35:21;;;;;;;51.07;29.20;;;9.40;56.40;;;;;;5927245;24;20011;-82
2022/12/08 03:38:06;;;;;;;43.17;26.00;;;9.40;56.80;;;;;;5926635;24;20635;-83
2022/12/08 03:41:19;;;;;;;46.63;27.48;;;9.50;57.00;;;;;;5926475;24;20531;-81
2022/12/08 03:43:49;;;;;;;46.58;26.52;;;9.50;56.60;;;;;;5821084;24;20330;-82
2022/12/08 03:46:22;;;;;;;46.17;26.17;;;9.60;56.30;;;;;;5796826;24;20114;-80
2022/12/08 03:48:48;;;;;;;43.45;25.95;;;9.70;56.40;;;;;;5796965;24;20058;-83
2022/12/08 03:51:15;;;;;;;40.85;24.60;;;9.70;56.30;;;;;;5795048;24;20395;-81
2022/12/08 03:53:41;;;;;;;45.92;27.42;;;9.70;56.40;;;;;;5797053;24;20094;-80
2022/12/08 03:56:30;;;;;;;45.63;26.27;;;9.70;56.20;;;;;;5796065;24;20014;-80
2022/12/08 03:58:57;;;;;;;43.80;26.03;;;9.60;56.50;;;;;;5919736;23;20004;-80
2022/12/08 04:01:23;;;;;;;49.63;27.10;;;9.50;56.70;;;;;;5986612;23;20011;-80
2022/12/08 04:04:09;;;;;;;;;;;;;;;;;;;;;
2022/12/08 04:07:00;;;;;;;45.72;25.70;;;9.90;56.40;;;;;;6009600;23;20374;-81
2022/12/08 04:09:40;;;;;;;41.22;25.08;;;9.90;56.00;;;;;;5986380;23;20081;-82
2022/12/08 04:12:07;;;;;;;41.22;24.20;;;9.90;56.00;;;;;;5983050;23;20000;-81
2022/12/08 04:14:33;;;;;;;42.42;26.25;;;9.90;55.90;;;;;;5985943;23;20075;-82
2022/12/08 04:16:58;;;;;;;38.95;23.17;;;9.90;56.00;;;;;;6015972;23;20435;-81
2022/12/08 04:19:24;;;;;;;38.17;23.27;;;9.80;56.40;;;;;;6130466;23;20056;-81
2022/12/08 04:21:50;;;;;;;46.17;26.40;;;9.30;57.30;;;;;;6130411;23;19997;-80
2022/12/08 04:24:16;;;;;;;48.83;28.77;;;9.20;58.20;;;;;;6130290;23;20024;-82
2022/12/08 04:26:41;;;;;;;42.33;25.05;;;9.40;57.70;;;;;;6130272;23;20088;-82
2022/12/08 04:29:07;;;;;;;41.55;24.65;;;9.60;57.70;;;;;;6130777;23;20115;-81
2022/12/08 04:31:33;;;;;;;41.85;25.52;;;9.70;57.80;;;;;;6131290;23;20009;-81
2022/12/08 04:33:58;;;;;;;42.53;26.17;;;9.90;56.70;;;;;;6130630;23;20375;-81
2022/12/08 04:36:24;;;;;;;43.25;25.90;;;9.90;56.40;;;;;;6130261;23;20574;-82
2022/12/08 04:38:50;;;;;;;41.38;25.75;;;10.00;56.40;;;;;;6130579;23;20079;-81
2022/12/08 04:41:15;;;;;;;42.22;25.63;;;10.00;56.90;;;;;;6130652;23;20005;-79
2022/12/08 04:43:43;;;;;;;50.00;28.10;;;9.90;55.90;;;;;;6130699;23;20005;-81
2022/12/08 04:46:09;;;;;;;44.90;27.13;;;9.90;56.10;;;;;;6156860;23;20433;-80
2022/12/08 04:48:39;;;;;;;40.70;24.38;;;9.90;56.30;;;;;;6130920;23;20006;-80
2022/12/08 04:51:06;;;;;;;42.60;25.70;;;9.80;56.40;;;;;;6156785;23;20077;-81
2022/12/08 04:53:32;;;;;;;40.50;25.25;;;9.70;57.10;;;;;;6130748;23;20036;-80
2022/12/08 04:55:58;;;;;;;40.45;26.75;;;9.70;57.00;;;;;;6130690;23;20005;-80
2022/12/08 04:58:23;;;;;;;46.30;26.83;;;9.80;56.70;;;;;;6130590;23;20006;-81
2022/12/08 05:00:50;;;;;;;43.55;24.88;;;9.90;56.70;;;;;;6130109;23;20324;-80
2022/12/08 05:03:16;;;;;;;41.95;24.58;;;10.10;56.30;;;;;;6130488;23;20005;-81
2022/12/08 05:05:42;;;;;;;38.15;23.00;;;9.80;56.00;;;;;;6130443;23;20096;-80
2022/12/08 05:08:09;;;;;;;38.60;23.55;;;9.40;56.70;;;;;;6130297;23;20001;-84
2022/12/08 05:10:35;;;;;;;40.08;25.02;;;9.30;57.20;;;;;;6130021;23;20017;-79
2022/12/08 05:13:00;;;;;;;44.45;24.45;;;9.60;56.60;;;;;;6130191;23;20060;-81
2022/12/08 05:15:26;;;;;;;43.28;24.45;;;9.70;56.60;;;;;;6130312;23;20009;-80
2022/12/08 05:17:52;;;;;;;44.63;25.00;;;9.40;57.10;;;;;;6129898;23;20001;-81
2022/12/08 05:20:18;;;;;;;43.75;26.00;;;9.30;57.60;;;;;;6129593;23;20044;-79
2022/12/08 05:22:44;;;;;;;44.75;27.50;;;9.60;57.30;;;;;;6130224;23;20013;-79
2022/12/08 05:25:11;;;;;;;46.30;28.27;;;9.80;57.30;;;;;;6129807;23;20037;-78
2022/12/08 05:27:36;;;;;;;42.75;26.98;;;9.90;56.70;;;;;;6155905;23;20001;-80
2022/12/08 05:30:02;;;;;;;44.97;28.13;;;10.10;56.50;;;;;;6129760;23;20465;-85
2022/12/08 05:32:28;;;;;;;43.83;27.25;;;10.20;56.20;;;;;;6129776;23;20013;-79
2022/12/08 05:34:54;;;;;;;41.17;26.23;;;10.30;56.50;;;;;;6156156;23;20072;-80
2022/12/08 05:37:19;;;;;;;46.13;28.45;;;10.30;56.10;;;;;;6156346;23;20028;-80
2022/12/08 05:39:45;;;;;;;41.25;26.33;;;10.30;55.80;;;;;;6129431;23;20006;-80
2022/12/08 05:42:11;;;;;;;46.35;26.60;;;10.30;56.00;;;;;;6155612;23;20108;-79
2022/12/08 05:44:36;;;;;;;45.92;25.10;;;10.40;56.00;;;;;;6129666;23;20445;-79
2022/12/08 05:47:02;;;;;;;42.80;26.35;;;10.40;56.00;;;;;;6129405;23;20338;-81
2022/12/08 05:49:28;;;;;;;41.97;25.52;;;10.50;56.00;;;;;;6130002;23;20002;-81
2022/12/08 05:51:53;;;;;;;44.80;26.88;;;10.50;55.30;;;;;;6155780;23;20339;-82
2022/12/08 05:54:19;;;;;;;42.42;25.90;;;10.40;55.90;;;;;;6128947;23;20415;-82
2022/12/08 05:56:45;;;;;;;44.92;27.67;;;10.50;55.70;;;;;;6129940;23;20320;-78
2022/12/08 05:59:10;;;;;;;43.00;25.27;;;10.40;55.70;;;;;;6129382;23;20032;-80
2022/12/08 06:01:36;;;;;;;43.55;25.17;;;10.30;55.90;;;;;;6155659;23;19997;-80
2022/12/08 06:04:03;;;;;;;50.63;27.98;;;10.00;56.40;;;;;;6155486;23;20068;-81
2022/12/08 06:06:35;;;;;;;41.08;26.15;;;9.90;57.10;;;;;;6127725;23;20021;-81
2022/12/08 06:09:05;;;;;;;43.65;26.73;;;10.10;56.80;;;;;;6128284;23;20040;-81
2022/12/08 06:11:31;;;;;;;42.33;27.00;;;10.30;56.20;;;;;;6129461;23;20010;-85
2022/12/08 06:13:58;;;;;;;52.53;30.35;;;10.30;56.10;;;;;;6128122;23;20013;-81
2022/12/08 06:16:25;;;;;;;49.30;28.55;;;10.40;56.20;;;;;;6128192;23;20017;-81
2022/12/08 06:18:51;;;;;;;47.63;29.02;;;10.60;56.00;;;;;;6129571;23;20005;-81
2022/12/08 06:21:18;;;;;;;40.97;26.77;;;10.50;56.20;;;;;;6128612;23;20342;-81
2022/12/08 06:23:48;;;;;;;44.22;27.05;;;10.50;56.20;;;;;;6130396;23;20014;-81
2022/12/08 06:26:14;;;;;;;48.05;27.23;;;10.60;56.30;;;;;;6129307;23;20072;-81
2022/12/08 06:28:41;;;;;;;42.58;26.42;;;10.50;55.90;;;;;;6129594;23;20005;-79
2022/12/08 06:31:18;;;;;;;40.75;25.13;;;10.40;56.40;;;;;;6128816;23;20056;-83
2022/12/08 06:33:45;;;;;;;43.90;27.20;;;10.30;56.50;;;;;;6129061;23;20009;-80
2022/12/08 06:36:13;;;;;;;84.32;40.40;;;10.10;56.70;;;;;;6129033;23;20044;-80
2022/12/08 06:38:39;;;;;;;52.97;30.48;;;9.80;57.50;;;;;;6129003;23;20434;-80
2022/12/08 06:41:05;;;;;;;68.88;35.25;;;9.50;58.00;;;;;;6129771;23;20002;-81
2022/12/08 06:43:32;;;;;;;72.43;36.58;;;9.20;58.70;;;;;;6125991;23;20089;-79
2022/12/08 06:45:58;;;;;;;60.70;30.88;;;9.00;59.40;;;;;;6125235;23;20013;-79
2022/12/08 06:48:24;;;;;;;102.47;46.45;;;8.80;60.00;;;;;;6126019;23;20020;-81
2022/12/08 06:50:49;;;;;;;74.40;40.38;;;8.90;60.30;;;;;;6152352;23;20469;-79
2022/12/08 06:53:16;;;;;;;60.67;34.22;;;8.90;60.00;;;;;;6152754;23;20080;-79
2022/12/08 06:55:46;;;;;;;70.75;35.22;;;9.00;59.90;;;;;;6127998;23;20006;-79
2022/12/08 06:58:13;;;;;;;58.40;31.85;;;9.20;60.00;;;;;;6153430;23;20029;-79
2022/12/08 07:00:40;;;;;;;59.42;32.97;;;9.40;59.60;;;;;;6152856;23;20010;-79
2022/12/08 07:03:07;;;;;;;58.78;33.22;;;9.60;58.80;;;;;;6152679;23;20085;-79
2022/12/08 07:05:34;;;;;;;55.40;31.02;;;9.70;59.20;;;;;;6126645;23;20111;-79
2022/12/08 07:08:00;;;;;;;49.05;29.70;;;9.70;58.40;;;;;;6128008;23;20017;-80
2022/12/08 07:10:26;;;;;;;46.15;28.13;;;9.50;59.10;;;;;;6128974;23;20006;-81
2022/12/08 07:12:51;;;;;;;43.53;25.25;;;9.50;59.10;;;;;;6129903;23;20037;-80
2022/12/08 07:15:18;;;;;;;41.38;25.38;;;9.70;58.60;;;;;;6155787;23;20446;-84
2022/12/08 07:17:43;;;;;;;44.20;27.05;;;9.70;58.70;;;;;;6128336;23;20006;-81
2022/12/08 07:20:09;;;;;;;47.45;25.90;;;9.80;58.60;;;;;;6129592;23;20048;-81
2022/12/08 07:22:35;;;;;;;41.50;25.13;;;9.80;58.60;;;;;;6129576;23;20044;-80
2022/12/08 07:25:01;;;;;;;48.53;29.10;;;9.90;58.10;;;;;;6129676;23;20023;-80
2022/12/08 07:27:27;;;;;;;42.90;25.40;;;10.00;58.20;;;;;;6107378;23;20104;-83
2022/12/08 07:29:53;;;;;;;45.40;25.98;;;10.20;57.90;;;;;;6158270;23;20009;-81
2022/12/08 07:32:18;;;;;;;45.60;24.05;;;10.10;57.70;;;;;;6134512;23;20009;-82
2022/12/08 07:34:44;;;;;;;38.15;23.58;;;10.20;57.70;;;;;;6132772;23;20017;-83
2022/12/08 07:37:10;;;;;;;40.67;25.70;;;10.00;58.20;;;;;;6133560;23;20005;-81
2022/12/08 07:39:35;;;;;;;41.05;23.63;;;9.80;58.30;;;;;;6134170;23;20092;-80
2022/12/08 07:42:01;;;;;;;39.15;23.25;;;9.70;58.40;;;;;;6133683;23;20431;-79
2022/12/08 07:44:27;;;;;;;42.83;26.40;;;9.70;58.70;;;;;;6138548;23;20067;-80
2022/12/08 07:46:52;;;;;;;46.88;28.35;;;9.70;58.90;;;;;;6137031;23;20018;-80
2022/12/08 07:49:18;;;;;;;43.40;26.30;;;9.70;59.20;;;;;;6160710;23;20072;-81
2022/12/08 07:51:44;;;;;;;46.40;26.90;;;9.50;59.30;;;;;;6135770;23;20033;-80
2022/12/08 07:54:11;;;;;;;51.72;30.05;;;9.30;59.70;;;;;;6139524;23;20005;-81
2022/12/08 07:56:37;;;;;;;52.72;31.63;;;9.30;60.30;;;;;;6144109;23;20001;-80
2022/12/08 07:59:03;;;;;;;54.72;33.17;;;9.20;60.20;;;;;;6164677;23;20017;-80
2022/12/08 08:01:31;;;;;;;58.55;34.30;;;9.20;60.40;;;;;;6172399;23;20057;-79
2022/12/08 08:04:00;;;;;;;43.75;28.13;;;9.20;60.50;;;;;;6136496;23;20005;-94
2022/12/08 08:06:26;;;;;;;41.55;24.92;;;9.10;60.80;;;;;;6132598;23;20071;-92
2022/12/08 08:08:52;;;;;;;45.33;26.10;;;9.00;60.90;;;;;;6133781;23;20041;-82
2022/12/08 08:11:18;;;;;;;40.00;23.75;;;8.90;61.10;;;;;;6132240;23;20006;-80
2022/12/08 08:13:43;;;;;;;37.97;24.40;;;8.80;61.50;;;;;;6130708;23;20017;-79
2022/12/08 08:16:12;;;;;;;40.20;25.70;;;8.70;62.00;;;;;;6131213;23;20006;-79
2022/12/08 08:18:38;;;;;;;40.03;24.55;;;8.80;62.30;;;;;;6130888;23;20013;-81
2022/12/08 08:21:04;;;;;;;42.55;25.30;;;9.10;61.40;;;;;;6158448;23;20009;-80
2022/12/08 08:23:29;;;;;;;40.97;23.65;;;9.40;61.30;;;;;;6157561;23;19998;-91
2022/12/08 08:26:02;;;;;;;44.33;23.40;;;9.90;60.20;;;;;;6156865;23;20479;-85
2022/12/08 08:28:28;;;;;;;37.03;22.35;;;10.60;59.30;;;;;;6157224;23;19997;-82
2022/12/08 08:30:54;;;;;;;37.55;23.48;;;10.90;57.60;;;;;;6131406;23;20312;-80
2022/12/08 08:33:20;;;;;;;46.60;28.00;;;11.30;56.60;;;;;;6130668;23;20028;-90
2022/12/08 08:35:46;;;;;;;41.63;25.92;;;11.60;56.50;;;;;;6133650;23;20029;-81
2022/12/08 08:38:11;;;;;;;42.90;26.25;;;12.00;55.80;;;;;;6131111;23;20084;-81
2022/12/08 08:40:37;;;;;;;43.00;23.00;;;12.20;55.10;;;;;;6156706;23;20005;-80
2022/12/08 08:43:04;;;;;;;36.22;21.63;;;12.10;55.10;;;;;;6130959;23;20032;-81
2022/12/08 08:45:30;;;;;;;46.53;25.90;;;12.10;55.20;;;;;;6130630;23;20005;-81
2022/12/08 08:47:56;;;;;;;42.75;26.10;;;12.00;55.30;;;;;;6156901;23;20002;-89
2022/12/08 08:50:22;;;;;;;43.83;23.20;;;12.00;55.30;;;;;;6130965;23;20009;-89
2022/12/08 08:52:47;;;;;;;34.22;22.25;;;11.70;55.80;;;;;;6130668;23;20304;-81
2022/12/08 08:55:13;;;;;;;40.58;25.42;;;11.40;56.70;;;;;;6156378;23;20002;-79
2022/12/08 08:57:39;;;;;;;35.70;23.00;;;11.20;57.40;;;;;;6157215;23;20002;-87
2022/12/08 09:00:06;;;;;;;40.50;25.10;;;11.10;57.50;;;;;;6130596;23;20335;-82
2022/12/08 09:02:31;;;;;;;37.95;24.42;;;11.20;58.00;;;;;;6130628;23;20017;-81
2022/12/08 09:04:57;;;;;;;40.67;23.65;;;11.20;57.60;;;;;;6130913;23;20029;-82
2022/12/08 09:07:23;;;;;;;36.05;22.25;;;11.30;57.50;;;;;;6156986;23;20013;-84
2022/12/08 09:09:48;;;;;;;41.00;25.00;;;11.20;57.50;;;;;;6156853;23;19997;-82
2022/12/08 09:12:14;;;;;;;38.13;23.27;;;11.00;58.40;;;;;;6156784;23;20005;-83
2022/12/08 09:14:40;;;;;;;36.70;24.50;;;11.10;58.40;;;;;;6130765;23;20021;-85
2022/12/08 09:17:06;;;;;;;37.30;22.33;;;11.10;58.30;;;;;;6130371;23;20053;-88
2022/12/08 09:19:32;;;;;;;40.33;24.02;;;11.10;58.20;;;;;;6131213;23;20004;-87
2022/12/08 09:21:57;;;;;;;40.83;24.38;;;10.70;58.50;;;;;;6130414;23;20005;-86
2022/12/08 09:24:23;;;;;;;37.40;24.15;;;10.50;59.60;;;;;;6157163;23;20001;-82
2022/12/08 09:26:53;;;;;;;37.42;23.55;;;10.40;60.20;;;;;;6130354;23;20020;-87
2022/12/08 09:29:19;;;;;;;43.22;26.02;;;10.50;59.50;;;;;;6130661;23;20009;-87
2022/12/08 09:31:47;;;;;;;40.33;24.20;;;10.70;59.30;;;;;;6130004;23;20052;-82
2022/12/08 09:34:13;;;;;;;40.47;23.80;;;10.80;58.80;;;;;;6127731;23;20331;-81
2022/12/08 09:36:39;;;;;;;41.33;25.30;;;10.80;58.60;;;;;;6128535;23;20005;-80
2022/12/08 09:39:06;;;;;;;39.10;24.75;;;11.10;58.30;;;;;;6129972;23;20014;-82
2022/12/08 09:41:48;;;;;;;40.80;25.05;;;11.50;57.80;;;;;;6131236;23;20001;-86
2022/12/08 09:44:37;;;;;;;38.28;24.10;;;11.70;57.20;;;;;;6131448;23;20017;-81
2022/12/08 09:47:12;;;;;;;38.63;24.23;;;11.80;56.90;;;;;;6129726;23;20009;-90
2022/12/08 09:49:52;;;;;;;34.55;22.08;;;11.90;57.00;;;;;;6156245;23;19997;-82
2022/12/08 09:52:24;;;;;;;33.40;21.70;;;12.00;57.10;;;;;;6130756;23;20014;-81
2022/12/08 09:54:49;;;;;;;33.13;21.65;;;12.00;56.90;;;;;;6129767;23;20033;-89
2022/12/08 09:57:19;;;;;;;37.30;23.05;;;11.80;57.00;;;;;;6155901;23;20060;-83
2022/12/08 09:59:52;;;;;;;34.80;23.20;;;11.70;57.40;;;;;;6154631;23;20006;-81
2022/12/08 10:02:27;;;;;;;37.30;22.17;;;11.80;56.90;;;;;;6130356;23;19998;-81
2022/12/08 10:04:57;;;;;;;37.58;22.00;;;11.50;57.30;;;;;;6129646;23;20005;-81
2022/12/08 10:07:35;;;;;;;35.88;21.85;;;11.40;57.80;;;;;;6156046;23;20009;-89
2022/12/08 10:10:30;;;;;;;35.13;22.08;;;11.30;57.90;;;;;;6155778;23;19993;-88
2022/12/08 10:13:12;;;;;;;40.75;24.05;;;11.40;57.60;;;;;;6130229;23;20006;-81
2022/12/08 10:15:50;;;;;;;37.90;22.35;;;11.50;57.90;;;;;;6129555;23;20084;-89
2022/12/08 10:18:23;;;;;;;44.00;24.48;;;11.70;57.40;;;;;;6155816;23;20006;-87
2022/12/08 10:20:50;;;;;;;37.25;23.02;;;12.00;57.10;;;;;;6129913;23;20033;-82
2022/12/08 10:23:28;;;;;;;35.92;23.45;;;12.20;56.60;;;;;;6131173;23;20435;-81
2022/12/08 10:26:03;;;;;;;35.38;22.98;;;12.30;56.30;;;;;;6155515;23;20105;-81
2022/12/08 10:28:29;;;;;;;34.00;22.00;;;12.40;56.70;;;;;;6130157;23;20056;-88
2022/12/08 10:30:55;;;;;;;34.53;22.55;;;12.60;56.00;;;;;;6130025;23;20024;-82
2022/12/08 10:33:22;;;;;;;36.55;22.48;;;12.80;55.50;;;;;;6130306;23;20006;-81
2022/12/08 10:36:03;;;;;;;35.67;23.10;;;12.80;55.20;;;;;;6130532;23;20477;-81
2022/12/08 10:38:35;;;;;;;37.38;22.75;;;12.50;55.60;;;;;;6130078;23;20006;-81
2022/12/08 10:41:23;;;;;;;33.72;22.65;;;12.40;55.90;;;;;;6156162;23;20053;-81
2022/12/08 10:43:52;;;;;;;37.35;23.15;;;12.30;56.00;;;;;;6128908;23;20060;-89
2022/12/08 10:46:26;;;;;;;35.30;22.95;;;12.30;55.90;;;;;;6155913;23;20043;-88
2022/12/08 10:48:54;;;;;;;40.30;23.42;;;12.40;56.00;;;;;;6155752;23;20048;-81
2022/12/08 10:51:34;;;;;;;40.15;24.00;;;12.40;56.10;;;;;;6155228;23;20001;-81
2022/12/08 10:54:00;;;;;;;40.13;24.50;;;12.70;55.90;;;;;;6129833;23;20006;-81
2022/12/08 10:56:29;;;;;;;39.33;25.60;;;12.80;55.80;;;;;;6129467;23;20013;-82
2022/12/08 10:59:16;;;;;;;35.38;23.45;;;12.80;55.70;;;;;;6155704;23;19994;-83
2022/12/08 11:01:45;;;;;;;40.30;24.90;;;12.90;55.60;;;;;;6129713;23;20008;-82
2022/12/08 11:04:18;;;;;;;37.58;22.63;;;12.90;55.40;;;;;;6129664;23;20013;-81
2022/12/08 11:06:45;;;;;;;40.20;25.13;;;13.00;55.40;;;;;;6155424;23;20016;-81
2022/12/08 11:09:17;;;;;;;39.35;24.15;;;12.90;55.60;;;;;;6129462;23;20016;-87
2022/12/08 11:12:05;;;;;;;37.67;24.40;;;12.90;55.80;;;;;;6129758;23;20316;-81
2022/12/08 11:14:41;;;;;;;38.90;24.60;;;12.90;55.80;;;;;;6155401;23;20028;-82
2022/12/08 11:17:21;;;;;;;38.67;24.17;;;13.00;55.70;;;;;;6155566;23;20055;-82
2022/12/08 11:19:59;;;;;;;39.83;25.35;;;13.20;55.60;;;;;;6129692;23;20020;-81
2022/12/08 11:22:36;;;;;;;43.75;27.60;;;13.20;55.50;;;;;;6129371;23;20391;-81
2022/12/08 11:25:20;;;;;;;40.53;26.55;;;13.10;55.70;;;;;;6130207;23;20088;-84
2022/12/08 11:27:49;;;;;;;45.50;27.33;;;13.30;55.50;;;;;;6155841;23;20042;-82
2022/12/08 11:30:23;;;;;;;45.22;26.55;;;13.00;55.70;;;;;;6129862;23;20323;-81
2022/12/08 11:32:58;;;;;;;39.22;24.88;;;13.00;55.90;;;;;;6129129;23;20010;-81
2022/12/08 11:35:40;;;;;;;36.83;21.83;;;13.00;56.20;;;;;;6129272;23;20331;-81
2022/12/08 11:38:21;;;;;;;37.15;22.88;;;12.80;55.90;;;;;;6129671;23;20009;-82
2022/12/08 11:40:51;;;;;;;32.47;22.05;;;12.70;56.20;;;;;;6130882;23;20006;-81
2022/12/08 11:43:35;;;;;;;;;;;12.50;56.60;;;;;;6157982;23;19997;-81
2022/12/08 11:46:07;;;;;;;35.03;21.63;;;12.50;56.70;;;;;;6157112;23;19912;-87
2022/12/08 11:48:46;;;;;;;33.25;21.23;;;12.50;56.80;;;;;;6131240;23;20477;-82
2022/12/08 11:51:23;;;;;;;32.17;19.70;;;12.50;57.30;;;;;;6157264;23;20032;-81
2022/12/08 11:53:48;;;;;;;34.35;21.75;;;12.60;56.40;;;;;;6130709;23;20340;-82
2022/12/08 11:56:36;;;;;;;34.95;23.38;;;13.10;56.00;;;;;;6131089;23;20005;-81
2022/12/08 11:59:14;;;;;;;25.77;15.45;;;13.20;55.00;;;;;;6131231;23;20089;-82
2022/12/08 12:01:40;;;;;;;22.00;14.18;;;12.40;54.70;;;;;;6128657;23;20082;-81
2022/12/08 12:04:28;;;;;;;22.70;14.77;;;11.30;56.70;;;;;;6157474;23;20505;-86
2022/12/08 12:07:15;;;;;;;22.33;16.00;;;11.20;57.40;;;;;;6115281;23;20013;-83
2022/12/08 12:10:01;;;;;;;22.25;14.65;;;11.30;57.30;;;;;;6156918;23;19998;-84
2022/12/08 12:13:03;;;;;;;23.77;16.17;;;11.50;57.30;;;;;;6156939;23;20001;-81
2022/12/08 12:15:57;;;;;;;22.77;15.40;;;12.20;56.30;;;;;;6130670;23;20024;-81
2022/12/08 12:18:49;;;;;;;23.25;15.43;;;12.80;55.50;;;;;;6130859;23;20037;-81
2022/12/08 12:21:23;;;;;;;24.35;16.63;;;12.80;54.50;;;;;;6115868;23;20061;-81
2022/12/08 12:23:56;;;;;;;27.23;17.65;;;12.80;54.70;;;;;;6130816;23;20423;-81
2022/12/08 12:26:28;;;;;;;25.42;17.08;;;12.90;55.00;;;;;;6130369;23;20013;-81
2022/12/08 12:29:10;;;;;;;33.22;19.52;;;12.90;54.90;;;;;;6130730;23;20055;-82
2022/12/08 12:31:42;;;;;;;30.75;18.77;;;12.90;54.90;;;;;;6157245;23;20064;-82
2022/12/08 12:34:15;;;;;;;31.55;18.90;;;13.10;54.50;;;;;;6156734;23;20029;-82
2022/12/08 12:37:06;;;;;;;27.60;17.30;;;13.10;54.90;;;;;;6122042;23;20010;-85
2022/12/08 12:39:44;;;;;;;29.02;17.85;;;12.90;54.50;;;;;;6156638;23;20001;-83
2022/12/08 12:42:42;;;;;;;25.83;17.55;;;12.50;55.10;;;;;;6130937;23;20009;-83
2022/12/08 12:45:17;;;;;;;25.90;16.40;;;12.20;55.10;;;;;;6130672;23;20032;-84
2022/12/08 12:47:47;;;;;;;26.58;17.63;;;11.70;56.20;;;;;;6131367;23;20025;-83
2022/12/08 12:50:33;;;;;;;26.50;17.55;;;11.60;56.20;;;;;;6156575;23;20008;-83
2022/12/08 12:53:02;;;;;;;33.70;18.73;;;11.50;56.80;;;;;;6130334;23;20005;-81
2022/12/08 12:55:45;;;;;;;29.42;18.42;;;11.60;56.50;;;;;;6130495;23;20006;-81
2022/12/08 12:58:19;;;;;;;34.35;19.10;;;11.40;56.90;;;;;;6130523;23;20001;-81
2022/12/08 13:00:45;;;;;;;25.35;16.02;;;11.50;56.90;;;;;;6157249;23;20406;-84
2022/12/08 13:03:14;;;;;;;22.88;15.77;;;11.60;56.20;;;;;;6130738;23;20504;-81
2022/12/08 13:05:58;;;;;;;22.95;15.15;;;11.40;56.30;;;;;;6130392;23;20499;-80
2022/12/08 13:08:26;;;;;;;27.13;16.92;;;11.60;56.10;;;;;;6156450;23;19993;-81
2022/12/08 13:11:03;;;;;;;26.52;16.58;;;11.90;55.80;;;;;;6130369;23;20085;-81
2022/12/08 13:13:29;;;;;;;23.85;15.65;;;12.00;55.80;;;;;;6156467;23;20020;-80
2022/12/08 13:16:00;;;;;;;22.55;14.02;;;11.60;55.30;;;;;;6130627;23;20005;-81
2022/12/08 13:18:33;;;;;;;22.90;14.48;;;11.00;55.80;;;;;;6121743;23;20006;-83
2022/12/08 13:21:08;;;;;;;20.45;13.30;;;10.40;57.80;;;;;;6156439;23;20003;-82
2022/12/08 13:23:37;;;;;;;26.60;16.95;;;10.60;57.70;;;;;;6156470;23;19993;-82
2022/12/08 13:26:11;;;;;;;28.88;16.38;;;11.20;57.00;;;;;;6130466;23;20018;-81
2022/12/08 13:29:05;;;;;;;23.30;14.27;;;11.50;55.60;;;;;;6130267;23;20002;-82
2022/12/08 13:31:44;;;;;;;28.23;16.52;;;11.60;55.60;;;;;;6129999;23;21329;-82
2022/12/08 13:34:15;;;;;;;23.10;14.82;;;12.00;55.60;;;;;;6130066;23;20452;-83
2022/12/08 13:37:02;;;;;;;22.48;15.00;;;12.10;54.60;;;;;;6129788;23;20016;-81
2022/12/08 13:39:52;;;;;;;26.80;15.88;;;11.40;55.40;;;;;;6129837;23;20355;-82
2022/12/08 13:42:29;;;;;;;35.20;19.80;;;11.20;56.10;;;;;;6130190;23;20022;-81
2022/12/08 13:45:16;;;;;;;28.90;18.48;;;11.00;56.30;;;;;;6130033;23;20008;-83
2022/12/08 13:47:52;;;;;;;37.00;19.20;;;10.90;56.60;;;;;;6129832;23;20017;-81
2022/12/08 13:50:23;;;;;;;25.40;16.88;;;10.90;57.10;;;;;;6156161;23;20028;-82
2022/12/08 13:52:59;;;;;;;33.08;19.55;;;11.30;56.50;;;;;;6130214;23;20435;-83
2022/12/08 13:55:32;;;;;;;28.20;18.00;;;11.70;55.90;;;;;;6129613;23;19997;-82
2022/12/08 13:57:58;;;;;;;29.10;18.63;;;12.00;55.20;;;;;;6129840;23;20056;-81
2022/12/08 14:00:26;;;;;;;26.88;15.45;;;12.30;54.90;;;;;;6129966;23;20084;-81
2022/12/08 14:02:59;;;;;;;23.65;15.80;;;12.50;54.60;;;;;;6130167;23;20450;-82
2022/12/08 14:05:26;;;;;;;25.58;16.67;;;12.80;53.80;;;;;;6155850;23;20021;-81
2022/12/08 14:07:55;;;;;;;25.38;15.40;;;12.90;53.80;;;;;;6130067;23;20032;-82
2022/12/08 14:10:28;;;;;;;27.55;17.55;;;13.00;53.50;;;;;;6129661;23;20012;-81
2022/12/08 14:13:03;;;;;;;25.58;16.77;;;13.00;53.50;;;;;;6130304;23;20068;-82
2022/12/08 14:15:32;;;;;;;28.85;17.25;;;13.00;53.70;;;;;;6129737;23;20398;-82
2022/12/08 14:17:57;;;;;;;28.35;17.25;;;13.20;53.60;;;;;;6155852;23;19998;-81
2022/12/08 14:20:31;;;;;;;27.38;17.77;;;13.10;54.00;;;;;;6129775;23;20013;-82
2022/12/08 14:22:58;;;;;;;27.02;16.98;;;13.00;53.80;;;;;;6129790;23;20156;-82
2022/12/08 14:25:28;;;;;;;31.20;19.45;;;13.00;53.70;;;;;;6128940;23;20013;-80
2022/12/08 14:28:00;;;;;;;123.78;55.85;;;13.10;53.80;;;;;;6129638;23;20453;-81
2022/12/08 14:30:30;;;;;;;68.57;35.70;;;13.10;54.30;;;;;;6155492;23;20008;-80
2022/12/08 14:32:58;;;;;;;118.70;56.28;;;12.90;54.50;;;;;;6129611;23;20001;-81
2022/12/08 14:35:34;;;;;;;80.50;40.90;;;12.90;54.90;;;;;;6129244;23;20013;-80
2022/12/08 14:38:02;;;;;;;62.60;36.58;;;12.90;55.10;;;;;;6122748;23;20010;-80
2022/12/08 14:40:33;;;;;;;95.30;50.83;;;12.90;54.80;;;;;;6129835;23;20085;-81
2022/12/08 14:43:07;;;;;;;61.25;37.13;;;13.00;54.70;;;;;;6129410;23;20056;-80
2022/12/08 14:46:12;;;;;;;49.47;29.30;;;12.80;55.20;;;;;;6129466;23;20442;-79